Terminal Aerodrome Forecast
Issued by NWS Paducah, KY

Home | Current Version | Previous Version | Text Only | Print | Product List | Glossary On
Versions: 1 2 3 4 5 6 7 8 9 10 11 12 13 14
594
FTUS43 KPAH 080528
TAFPAH
TAF
KPAH 080528Z 0806/0906 28010KT P6SM SCT050 BKN100
     FM081300 30010KT P6SM BKN025 OVC080
     FM081700 31014G22KT 6SM -SHSN OVC040
     FM090100 32012KT P6SM OVC050=

USA.gov is the U.S. government's official web portal to all federal, state and local government web resources and services.